createdAt,value
2023-05-09T00:12:53.207Z,21.30
2023-05-09T00:15:41.848Z,21.30
2023-05-09T00:18:31.273Z,21.30
2023-05-09T00:21:22.974Z,21.30
2023-05-09T00:24:11.526Z,21.30
2023-05-09T00:27:00.050Z,21.30
2023-05-09T00:29:50.041Z,21.20
2023-05-09T00:32:40.323Z,21.20
2023-05-09T00:35:28.923Z,21.30
2023-05-09T00:38:17.758Z,21.20
2023-05-09T00:41:06.439Z,21.20
2023-05-09T00:43:54.950Z,21.10
2023-05-09T00:46:45.191Z,21.10
2023-05-09T00:49:34.042Z,21.00
2023-05-09T00:52:25.701Z,21.00
2023-05-09T00:55:16.456Z,20.90
2023-05-09T00:58:05.178Z,20.90
2023-05-09T01:00:53.663Z,20.90
2023-05-09T01:03:44.416Z,20.90
2023-05-09T01:06:39.902Z,20.90
2023-05-09T01:09:39.680Z,21.00
2023-05-09T01:12:35.003Z,21.00
2023-05-09T01:15:29.767Z,20.90
2023-05-09T01:18:31.395Z,20.90
2023-05-09T01:21:27.992Z,21.00
2023-05-09T01:24:34.864Z,21.00
2023-05-09T01:27:30.137Z,21.00
2023-05-09T01:30:21.395Z,21.00
2023-05-09T01:33:11.250Z,21.00
2023-05-09T01:36:03.959Z,21.00
2023-05-09T01:38:53.706Z,21.00
2023-05-09T01:41:42.364Z,21.00
2023-05-09T01:44:35.018Z,21.00
2023-05-09T01:47:26.126Z,21.00
2023-05-09T01:50:16.040Z,21.00
2023-05-09T01:53:06.925Z,21.00
2023-05-09T01:55:57.487Z,21.40
2023-05-09T01:58:48.306Z,21.00
2023-05-09T02:01:38.264Z,21.00
2023-05-09T02:04:29.822Z,20.90
2023-05-09T02:07:18.964Z,20.80
2023-05-09T02:10:10.136Z,20.80
2023-05-09T02:12:58.806Z,20.80
2023-05-09T02:15:48.578Z,20.70
2023-05-09T02:18:37.392Z,20.60
2023-05-09T02:21:29.174Z,20.50
2023-05-09T05:10:52.139Z,20.80
2023-05-09T05:13:40.706Z,20.60
2023-05-09T05:16:29.281Z,20.50
2023-05-09T05:19:17.837Z,20.30
2023-05-09T05:22:06.331Z,20.70
2023-05-09T05:24:56.231Z,20.20
2023-05-09T05:27:46.150Z,20.20
2023-05-09T05:30:34.707Z,20.30
2023-05-09T05:33:23.288Z,20.40
2023-05-09T05:36:11.807Z,20.30
2023-05-09T05:39:00.409Z,20.30
2023-05-09T05:41:49.007Z,20.30
2023-05-09T05:44:38.948Z,20.30
2023-05-09T05:47:29.208Z,20.30
2023-05-09T05:50:18.011Z,20.00
2023-05-09T05:53:06.582Z,20.10
2023-05-09T05:55:55.132Z,20.10
2023-05-09T05:58:43.620Z,20.10
2023-05-09T06:01:33.368Z,20.10
2023-05-09T06:04:22.413Z,20.00
2023-05-09T06:07:11.828Z,20.00
2023-05-09T06:10:00.321Z,20.10
2023-05-09T06:12:49.123Z,20.10
2023-05-09T06:15:37.687Z,19.30
2023-05-09T06:18:27.712Z,20.10
2023-05-09T06:21:16.353Z,20.10
2023-05-09T06:24:11.862Z,20.00
2023-05-09T06:27:02.909Z,20.10
2023-05-09T06:29:52.721Z,20.00
2023-05-09T06:32:41.223Z,19.90
2023-05-09T06:35:31.175Z,19.90
2023-05-09T06:38:19.853Z,19.90
2023-05-09T06:41:08.446Z,19.90
2023-05-09T06:43:56.942Z,20.00
2023-05-09T06:46:45.577Z,20.10
2023-05-09T06:49:34.163Z,20.20
2023-05-09T06:52:24.134Z,20.20
2023-05-09T06:55:12.884Z,20.20
2023-05-09T06:58:01.580Z,20.30
2023-05-09T07:00:50.177Z,20.30
2023-05-09T07:03:38.700Z,20.20
2023-05-09T07:06:27.219Z,20.20
2023-05-09T07:09:20.561Z,20.20
2023-05-09T07:12:09.151Z,20.30
2023-05-09T07:14:57.621Z,20.30
2023-05-09T07:17:46.749Z,20.40
2023-05-09T07:20:35.379Z,20.40
2023-05-09T07:23:25.278Z,20.50
2023-05-09T07:26:15.116Z,20.40
2023-05-09T07:31:52.732Z,20.80
2023-05-09T07:34:41.302Z,21.00
2023-05-09T07:37:29.812Z,21.20
2023-05-09T07:40:18.698Z,21.50
2023-05-09T07:43:08.753Z,21.60
2023-05-09T07:48:46.075Z,22.20
2023-05-09T10:22:11.545Z,23.70
2023-05-09T10:25:04.297Z,23.70
2023-05-09T10:27:57.232Z,23.60
2023-05-09T10:30:57.903Z,23.70
2023-05-09T10:33:51.638Z,23.70
2023-05-09T10:36:40.517Z,23.80
2023-05-09T10:39:29.872Z,24.00
2023-05-09T10:42:18.745Z,24.20
2023-05-09T10:45:09.637Z,24.10
2023-05-09T10:47:59.110Z,24.10
2023-05-09T10:50:49.803Z,24.20
2023-05-09T10:53:46.612Z,24.20
2023-05-09T10:56:37.088Z,24.20
2023-05-09T10:59:37.348Z,24.30
2023-05-09T11:02:29.465Z,24.30
2023-05-09T11:23:59.333Z,25.20
2023-05-09T11:26:49.845Z,25.60
2023-05-09T11:29:45.545Z,25.60
2023-05-09T11:38:22.797Z,25.80
2023-05-09T11:41:11.607Z,26.00
2023-05-09T11:44:01.201Z,25.90
2023-05-09T11:46:50.712Z,26.10
2023-05-09T11:52:33.582Z,26.40
2023-05-09T12:01:03.586Z,27.00
2023-05-09T12:03:52.580Z,27.00
2023-05-09T12:06:41.159Z,27.00
2023-05-09T12:09:32.944Z,27.10
2023-05-09T12:12:22.810Z,27.20
2023-05-09T12:15:13.648Z,27.30
2023-05-09T12:18:04.120Z,27.40
2023-05-09T13:29:04.738Z,27.00
2023-05-09T13:31:53.156Z,26.90
2023-05-09T13:34:42.497Z,27.00
2023-05-09T13:37:32.227Z,27.20
2023-05-09T13:40:20.723Z,27.30
2023-05-09T13:43:09.266Z,27.30
2023-05-09T13:45:57.738Z,27.50
2023-05-09T13:48:47.721Z,27.60
2023-05-09T13:51:36.213Z,27.50
2023-05-09T13:54:26.986Z,27.40
2023-05-09T13:57:15.477Z,27.40
2023-05-09T14:00:05.055Z,27.40
2023-05-09T14:02:53.788Z,27.40
2023-05-09T14:05:42.268Z,27.30
2023-05-09T14:08:30.690Z,27.30
2023-05-09T14:11:20.481Z,27.30
2023-05-09T14:14:09.085Z,27.40
2023-05-09T14:16:59.139Z,27.50
2023-05-09T14:19:47.639Z,27.60
2023-05-09T14:22:36.039Z,27.60
2023-05-09T14:25:24.635Z,27.50
2023-05-09T14:28:14.649Z,27.40
2023-05-09T14:31:03.349Z,27.30
2023-05-09T14:33:51.884Z,27.30
2023-05-09T14:36:40.348Z,27.40
2023-05-09T14:39:28.924Z,27.40
2023-05-09T14:42:17.394Z,27.20
2023-05-09T14:45:10.810Z,27.00
2023-05-09T14:47:59.405Z,26.80
2023-05-09T14:50:49.713Z,26.60
2023-05-09T14:53:41.588Z,26.30
2023-05-09T14:56:30.454Z,26.20
2023-05-09T14:59:18.882Z,26.00
2023-05-09T15:02:08.801Z,25.80
2023-05-09T15:07:46.463Z,25.40
2023-05-09T15:10:35.127Z,25.40
2023-05-09T15:13:23.538Z,25.20
2023-05-09T15:16:12.077Z,25.30
2023-05-09T15:19:03.793Z,25.10
2023-05-09T15:55:44.647Z,24.50
2023-05-09T15:58:33.344Z,24.40
2023-05-09T17:45:38.343Z,23.30
2023-05-09T17:48:26.830Z,23.00
2023-05-09T17:51:16.949Z,22.90
2023-05-09T17:54:05.645Z,22.80
2023-05-09T17:56:58.954Z,22.70
2023-05-09T17:59:48.005Z,22.70
2023-05-09T18:02:36.645Z,21.30
2023-05-09T18:05:26.785Z,22.90
2023-05-09T18:08:17.502Z,22.90
2023-05-09T18:11:06.414Z,22.80
2023-05-09T18:13:54.904Z,22.70
2023-05-09T18:16:43.420Z,22.70
2023-05-09T18:19:31.930Z,22.70
2023-05-09T18:22:21.677Z,22.60
2023-05-09T18:25:12.054Z,22.60
2023-05-09T18:28:00.553Z,22.40
2023-05-09T18:30:49.012Z,22.40
2023-05-09T18:33:39.020Z,22.50
2023-05-09T18:36:30.142Z,22.40
2023-05-09T18:39:19.342Z,22.30
2023-05-09T18:42:09.164Z,22.20
2023-05-09T18:44:57.664Z,22.20
2023-05-09T18:47:46.284Z,22.10
2023-05-09T18:50:34.841Z,22.10
2023-05-09T19:18:48.772Z,21.60
2023-05-09T19:21:37.726Z,21.40
2023-05-09T19:24:26.321Z,21.30
2023-05-09T19:27:14.731Z,21.20
2023-05-09T19:32:54.646Z,21.10
2023-05-09T19:35:43.211Z,21.10
2023-05-09T19:38:31.699Z,21.00
2023-05-09T19:41:24.649Z,21.00
2023-05-09T19:44:13.123Z,21.00
2023-05-09T19:47:05.090Z,21.00
2023-05-09T19:49:54.924Z,21.00
2023-05-09T19:52:43.429Z,21.00
2023-05-09T19:55:31.851Z,20.90
2023-05-09T19:58:20.683Z,20.90
2023-05-09T20:01:09.258Z,20.90
2023-05-09T20:03:57.808Z,21.00
2023-05-09T20:06:47.652Z,21.00
2023-05-09T20:09:36.580Z,20.90
2023-05-09T20:12:24.993Z,20.90
2023-05-09T20:15:13.608Z,20.90
2023-05-09T20:18:03.557Z,20.80
2023-05-09T20:20:52.157Z,20.70
2023-05-09T20:23:41.997Z,20.80
2023-05-09T20:26:30.373Z,20.70
2023-05-09T20:29:18.779Z,20.70
2023-05-09T20:32:07.364Z,20.60
2023-05-09T20:34:56.206Z,20.60
2023-05-09T20:37:44.619Z,20.50
2023-05-09T20:40:34.392Z,20.50
2023-05-09T20:43:22.795Z,20.50
2023-05-09T20:46:11.507Z,20.60
2023-05-09T20:48:59.972Z,20.60
2023-05-09T20:51:48.432Z,20.60
2023-05-09T20:54:36.858Z,20.70
2023-05-09T20:57:26.685Z,20.70
2023-05-09T21:00:15.870Z,20.70
2023-05-09T21:03:04.684Z,20.60
2023-05-09T21:05:53.205Z,20.60
2023-05-09T21:08:42.010Z,20.60
2023-05-09T21:11:30.756Z,20.70
2023-05-09T21:14:20.615Z,20.70
2023-05-09T21:17:09.068Z,20.70
2023-05-09T21:19:57.599Z,20.60
2023-05-09T21:22:46.147Z,20.60
2023-05-09T21:25:34.606Z,20.50
2023-05-09T21:28:23.058Z,20.60
2023-05-09T21:31:12.900Z,20.50
2023-05-09T21:34:01.425Z,20.40
2023-05-09T21:36:49.856Z,20.40
2023-05-09T21:39:38.299Z,20.40
2023-05-09T21:42:26.755Z,20.30
2023-05-09T21:45:15.177Z,20.30
2023-05-09T21:48:05.452Z,20.30
2023-05-09T21:50:53.904Z,20.40
2023-05-09T21:53:42.351Z,20.40
2023-05-09T21:56:30.927Z,20.40
2023-05-09T21:59:20.810Z,20.40
2023-05-09T22:02:09.335Z,20.40
2023-05-09T22:04:59.266Z,20.40
2023-05-09T22:07:47.722Z,20.30
2023-05-09T22:10:37.777Z,20.30
2023-05-09T22:13:26.860Z,20.20
2023-05-09T22:19:04.205Z,20.10
2023-05-09T22:21:54.037Z,20.20
2023-05-09T22:24:42.592Z,20.20
2023-05-09T22:27:31.062Z,20.30
2023-05-09T22:30:19.653Z,20.20
2023-05-09T22:33:08.234Z,20.20
2023-05-09T22:35:56.997Z,20.30
2023-05-09T22:38:46.849Z,20.20
2023-05-09T22:41:35.260Z,20.20
2023-05-09T22:44:23.765Z,20.20
2023-05-09T22:47:12.447Z,20.20
2023-05-09T22:50:00.871Z,20.20
2023-05-09T22:52:49.282Z,20.20
2023-05-09T22:55:39.155Z,20.20
2023-05-09T22:58:27.658Z,20.20
2023-05-09T23:01:16.180Z,20.20
2023-05-09T23:04:04.618Z,20.20
2023-05-09T23:06:53.032Z,20.20
2023-05-09T23:09:41.545Z,20.20
2023-05-09T23:12:31.447Z,20.20
2023-05-09T23:15:20.053Z,20.10
2023-05-09T23:18:08.592Z,20.10
2023-05-09T23:20:57.121Z,20.10
2023-05-09T23:23:45.550Z,20.20
2023-05-09T23:26:34.113Z,20.20
2023-05-09T23:29:25.174Z,19.80
2023-05-09T23:32:13.856Z,19.70
2023-05-09T23:37:51.208Z,19.60
2023-05-09T23:40:39.750Z,19.70
2023-05-09T23:43:28.877Z,19.80
2023-05-09T23:46:19.083Z,19.80
2023-05-09T23:49:07.624Z,19.80
2023-05-09T23:51:56.182Z,19.70
2023-05-09T23:54:44.780Z,19.70
2023-05-09T23:57:33.328Z,19.70
